Celik 1 — 9HKY9 — position and weather

sailwx.info

Track history (hours):
 
Tides and Currents Weather Stations Pressure Air Temp Water Temp Dewpoint Dewpoint Depression Visibility Wind Speed Wind Dir Waves Ship Positions

Celik 1

Last reported at 2016-Feb-11 16:32 UTC. Time now 2016-Feb-14 01:47 UTC.
Position N 44°11' E 029°17'.

Length 121 m; draft 4.6 m.

Type: Cargo ship. MMSI: 249114000.

Date/timePositionNaut miles runAvg speedWind from/ knotsBaromVisibWave heightAir tempDewpointWater temp
2016-Feb-11 16:32N 44°11' E 029°17'10 9.8
2016-Feb-11 15:33N 44°04' E 029°07'8 5.8
2016-Feb-11 14:10N 43°59' E 028°59'1 0.8
2016-Feb-11 13:33N 43°59' E 028°58'9 9.3
2016-Feb-11 12:33N 44°01' E 028°46'8 8.4
2016-Feb-11 11:33N 44°09' E 028°40'1 1.0
2016-Feb-11 10:23N 44°09' E 028°39'0 0.0
2016-Feb-11 09:23N 44°09' E 028°39'0 0.0
2016-Feb-11 08:26N 44°09' E 028°39'0 0.0
2016-Feb-11 07:26N 44°09' E 028°39'0 0.0
2016-Feb-11 06:26N 44°09' E 028°39'0 0.0
2016-Feb-11 05:29N 44°09' E 028°39'0 0.0
2016-Feb-11 04:29N 44°09' E 028°39'0 0.0
2016-Feb-11 03:29N 44°09' E 028°39'0 0.0
2016-Feb-11 02:32N 44°09' E 028°39'0 0.0
2016-Feb-11 01:32N 44°09' E 028°39'0 0.0
2016-Feb-11 00:32N 44°09' E 028°39'0 0.0
2016-Feb-10 23:32N 44°09' E 028°39'0 0.0
2016-Feb-10 22:32N 44°09' E 028°39'0 0.0
2016-Feb-10 21:32N 44°09' E 028°39'0 0.0
2016-Feb-10 20:32N 44°09' E 028°39'0 0.0
2016-Feb-10 19:23N 44°09' E 028°39'0 0.0
2016-Feb-10 18:26N 44°09' E 028°39'0 0.0
2016-Feb-10 17:26N 44°09' E 028°39'0 0.0
2016-Feb-10 16:26N 44°09' E 028°39'0 0.0
2016-Feb-10 15:29N 44°09' E 028°39'0 0.0
2016-Feb-10 14:29N 44°09' E 028°39'0 0.0
2016-Feb-10 13:29N 44°09' E 028°39'0 0.0
2016-Feb-10 12:32N 44°09' E 028°39'0 0.0
2016-Feb-10 11:32N 44°09' E 028°39'0 0.0
2016-Feb-10 10:32N 44°09' E 028°39'0 0.0
2016-Feb-10 09:32N 44°09' E 028°39'0 0.0
2016-Feb-10 08:32N 44°09' E 028°39'0 0.0
2016-Feb-10 07:20N 44°09' E 028°39'0 0.0
2016-Feb-10 06:32N 44°09' E 028°39'0 0.0
2016-Feb-10 05:08N 44°09' E 028°39'0 0.0
2016-Feb-10 04:23N 44°09' E 028°39'1 0.9
2016-Feb-10 03:33N 44°09' E 028°40'5 5.1
2016-Feb-10 02:33N 44°05' E 028°44'9 9.2
2016-Feb-10 01:33N 43°59' E 028°53'9 8.9
2016-Feb-10 00:33N 43°50' E 028°57'1610.3
2016-Feb-09 23:03N 43°35' E 028°59'  
2016-Feb-06 21:24N 39°46' E 024°55'8 9.2
2016-Feb-06 20:33N 39°47' E 024°44'20 9.7
2016-Feb-06 18:28N 39°48' E 024°18'9 9.7
2016-Feb-06 17:33N 39°49' E 024°07'  
Track history (hours):
 
Tides and Currents Weather Stations Pressure Air Temp Water Temp Dewpoint Dewpoint Depression Visibility Wind Speed Wind Dir Waves Ship Positions

Celik 1

Last reported at 2016-Feb-11 16:32 UTC. Time now 2016-Feb-14 01:47 UTC.
Position N 44°11' E 029°17'.

Length 121 m; draft 4.6 m.

Type: Cargo ship. MMSI: 249114000.

Date/timePositionNaut miles runAvg speedWind from/ knotsBaromVisibWave heightAir tempDewpointWater temp
2016-Feb-11 16:32N 44°11' E 029°17'10 9.8
2016-Feb-11 15:33N 44°04' E 029°07'8 5.8
2016-Feb-11 14:10N 43°59' E 028°59'1 0.8
2016-Feb-11 13:33N 43°59' E 028°58'9 9.3
2016-Feb-11 12:33N 44°01' E 028°46'8 8.4
2016-Feb-11 11:33N 44°09' E 028°40'1 1.0
2016-Feb-11 10:23N 44°09' E 028°39'0 0.0
2016-Feb-11 09:23N 44°09' E 028°39'0 0.0
2016-Feb-11 08:26N 44°09' E 028°39'0 0.0
2016-Feb-11 07:26N 44°09' E 028°39'0 0.0
2016-Feb-11 06:26N 44°09' E 028°39'0 0.0
2016-Feb-11 05:29N 44°09' E 028°39'0 0.0
2016-Feb-11 04:29N 44°09' E 028°39'0 0.0
2016-Feb-11 03:29N 44°09' E 028°39'0 0.0
2016-Feb-11 02:32N 44°09' E 028°39'0 0.0
2016-Feb-11 01:32N 44°09' E 028°39'0 0.0
2016-Feb-11 00:32N 44°09' E 028°39'0 0.0
2016-Feb-10 23:32N 44°09' E 028°39'0 0.0
2016-Feb-10 22:32N 44°09' E 028°39'0 0.0
2016-Feb-10 21:32N 44°09' E 028°39'0 0.0
2016-Feb-10 20:32N 44°09' E 028°39'0 0.0
2016-Feb-10 19:23N 44°09' E 028°39'0 0.0
2016-Feb-10 18:26N 44°09' E 028°39'0 0.0
2016-Feb-10 17:26N 44°09' E 028°39'0 0.0
2016-Feb-10 16:26N 44°09' E 028°39'0 0.0
2016-Feb-10 15:29N 44°09' E 028°39'0 0.0
2016-Feb-10 14:29N 44°09' E 028°39'0 0.0
2016-Feb-10 13:29N 44°09' E 028°39'0 0.0
2016-Feb-10 12:32N 44°09' E 028°39'0 0.0
2016-Feb-10 11:32N 44°09' E 028°39'0 0.0
2016-Feb-10 10:32N 44°09' E 028°39'0 0.0
2016-Feb-10 09:32N 44°09' E 028°39'0 0.0
2016-Feb-10 08:32N 44°09' E 028°39'0 0.0
2016-Feb-10 07:20N 44°09' E 028°39'0 0.0
2016-Feb-10 06:32N 44°09' E 028°39'0 0.0
2016-Feb-10 05:08N 44°09' E 028°39'0 0.0
2016-Feb-10 04:23N 44°09' E 028°39'1 0.9
2016-Feb-10 03:33N 44°09' E 028°40'5 5.1
2016-Feb-10 02:33N 44°05' E 028°44'9 9.2
2016-Feb-10 01:33N 43°59' E 028°53'9 8.9
2016-Feb-10 00:33N 43°50' E 028°57'1610.3
2016-Feb-09 23:03N 43°35' E 028°59'  
2016-Feb-06 21:24N 39°46' E 024°55'8 9.2
2016-Feb-06 20:33N 39°47' E 024°44'20 9.7
2016-Feb-06 18:28N 39°48' E 024°18'9 9.7
2016-Feb-06 17:33N 39°49' E 024°07'  

Dump ship's entire track history